Terminal Aerodrome Forecast
Issued by NWS Wilmington, OH

Current Version | Previous Version | Graphics & Text | Print | Product List | Glossary On
Versions: 1 2 3 4 5 6 7 8 9 10 11 12 13 14 15 16 17 18 19 20 21 22 23 24 25 26
302
FTUS41 KILN 160534
TAFCMH
TAF
KCMH 160534Z 1606/1706 00000KT 6SM HZ VCSH SCT008 OVC120
     FM161800 11006KT 5SM BR OVC012
     FM170200 14005KT P6SM VCSH OVC009=

USA.gov is the U.S. government's official web portal to all federal, state and local government web resources and services.